createdAt,value
2018-05-23T00:00:42.126Z,0.00
2018-05-23T00:01:42.151Z,0.00
2018-05-23T00:02:42.167Z,0.00
2018-05-23T00:03:42.191Z,0.00
2018-05-23T00:04:42.211Z,0.00
2018-05-23T00:05:42.236Z,0.00
2018-05-23T00:06:42.254Z,0.00
2018-05-23T00:07:42.278Z,0.00
2018-05-23T00:08:42.300Z,0.00
2018-05-23T00:09:42.318Z,0.00
2018-05-23T00:10:42.348Z,0.00
2018-05-23T00:11:42.362Z,0.00
2018-05-23T00:12:42.385Z,0.00
2018-05-23T00:13:42.407Z,0.00
2018-05-23T00:14:42.427Z,0.00
2018-05-23T00:15:42.453Z,0.00
2018-05-23T00:16:42.470Z,0.00
2018-05-23T00:17:42.495Z,0.00
2018-05-23T00:18:42.511Z,0.00
2018-05-23T00:19:42.534Z,0.00
2018-05-23T00:20:42.559Z,0.00
2018-05-23T00:21:42.587Z,0.00
2018-05-23T00:22:42.601Z,0.00
2018-05-23T00:23:42.623Z,0.00
2018-05-23T00:24:42.642Z,0.00
2018-05-23T00:25:42.669Z,0.00
2018-05-23T00:26:42.685Z,0.00
2018-05-23T00:27:42.709Z,0.00
2018-05-23T00:28:42.738Z,0.00
2018-05-23T00:29:42.750Z,0.00
2018-05-23T00:30:42.779Z,0.00
2018-05-23T00:31:42.790Z,0.00
2018-05-23T00:32:42.820Z,0.00
2018-05-23T00:33:42.839Z,0.00
2018-05-23T00:34:42.858Z,0.00
2018-05-23T00:35:42.883Z,0.00
2018-05-23T00:36:42.901Z,0.00
2018-05-23T00:37:42.923Z,0.00
2018-05-23T00:38:42.942Z,0.00
2018-05-23T00:39:42.965Z,0.00
2018-05-23T00:40:42.987Z,0.00
2018-05-23T00:41:43.010Z,0.00
2018-05-23T00:42:43.030Z,0.00
2018-05-23T00:43:43.053Z,0.00
2018-05-23T00:44:43.069Z,0.00
2018-05-23T00:45:43.096Z,0.00
2018-05-23T00:46:43.117Z,0.00
2018-05-23T00:47:43.137Z,0.00
2018-05-23T00:48:43.168Z,0.00
2018-05-23T00:49:43.180Z,0.00
2018-05-23T00:50:43.199Z,0.00
2018-05-23T00:51:43.221Z,0.00
2018-05-23T00:52:43.247Z,0.00
2018-05-23T00:53:43.267Z,0.00
2018-05-23T00:54:43.288Z,0.00
2018-05-23T00:55:43.305Z,0.00
2018-05-23T00:56:43.333Z,0.00
2018-05-23T00:57:43.355Z,0.00
2018-05-23T00:58:43.374Z,0.00
2018-05-23T00:59:43.392Z,0.00
2018-05-23T01:00:43.419Z,0.00
2018-05-23T01:01:43.444Z,0.00
2018-05-23T01:02:43.460Z,0.00
2018-05-23T01:03:43.482Z,0.00
2018-05-23T01:04:43.499Z,0.00
2018-05-23T01:05:43.529Z,0.00
2018-05-23T01:06:43.544Z,0.00
2018-05-23T01:07:43.570Z,0.00
2018-05-23T01:08:43.588Z,0.00
2018-05-23T01:09:43.609Z,0.00
2018-05-23T01:10:43.630Z,0.00
2018-05-23T01:11:43.652Z,0.00
2018-05-23T01:12:43.673Z,0.00
2018-05-23T01:13:43.694Z,0.00
2018-05-23T01:14:43.717Z,0.00
2018-05-23T01:15:43.742Z,0.00
2018-05-23T01:16:43.757Z,0.00
2018-05-23T01:17:43.775Z,0.00
2018-05-23T01:18:43.800Z,0.00
2018-05-23T01:19:43.822Z,0.00
2018-05-23T01:20:43.845Z,0.00
2018-05-23T01:21:43.866Z,0.00
2018-05-23T01:22:43.885Z,0.00
2018-05-23T01:23:43.905Z,0.00
2018-05-23T01:24:43.929Z,0.00
2018-05-23T01:25:43.959Z,0.00
2018-05-23T01:26:43.970Z,0.00
2018-05-23T01:27:43.999Z,0.00
2018-05-23T01:28:44.021Z,0.00
2018-05-23T01:29:44.036Z,0.00
2018-05-23T01:30:44.056Z,0.00
2018-05-23T01:31:44.078Z,0.00
2018-05-23T01:32:44.102Z,0.00
2018-05-23T01:33:44.126Z,0.00
2018-05-23T01:34:44.142Z,0.00
2018-05-23T01:35:44.163Z,0.00
2018-05-23T01:36:44.196Z,0.00
2018-05-23T01:37:44.212Z,0.00
2018-05-23T01:38:44.231Z,0.00
2018-05-23T01:39:44.249Z,0.00
2018-05-23T01:40:44.272Z,0.00
2018-05-23T01:41:44.292Z,0.00
2018-05-23T01:42:44.318Z,0.00
2018-05-23T01:43:44.336Z,0.00
2018-05-23T01:44:44.358Z,0.00
2018-05-23T01:45:44.385Z,0.00
2018-05-23T01:46:44.401Z,0.00
2018-05-23T01:47:44.423Z,0.00
2018-05-23T01:48:44.443Z,0.00
2018-05-23T01:49:44.465Z,0.00
2018-05-23T01:50:44.487Z,0.00
2018-05-23T01:51:44.508Z,0.00
2018-05-23T01:52:44.608Z,0.00
2018-05-23T01:53:44.550Z,0.00
2018-05-23T01:54:44.570Z,0.00
2018-05-23T01:55:44.593Z,0.00
2018-05-23T01:56:44.615Z,0.00
2018-05-23T01:57:44.636Z,0.00
2018-05-23T01:58:44.658Z,0.00
2018-05-23T01:59:44.676Z,0.00
2018-05-23T02:00:44.701Z,0.00
2018-05-23T02:01:44.722Z,0.00
2018-05-23T02:02:44.745Z,0.00
2018-05-23T02:03:44.764Z,0.00
2018-05-23T02:04:44.787Z,0.00
2018-05-23T02:05:44.808Z,0.00
2018-05-23T02:06:44.828Z,0.00
2018-05-23T02:07:44.851Z,0.00
2018-05-23T02:08:44.870Z,0.00
2018-05-23T02:09:44.897Z,0.00
2018-05-23T02:10:44.914Z,0.00
2018-05-23T02:11:44.935Z,0.00
2018-05-23T02:12:44.956Z,0.00
2018-05-23T02:13:44.978Z,0.00
2018-05-23T02:14:45.001Z,0.00
2018-05-23T02:15:45.021Z,0.00
2018-05-23T02:16:45.041Z,0.00
2018-05-23T02:17:45.063Z,0.00
2018-05-23T02:18:45.082Z,0.00
2018-05-23T02:19:45.106Z,0.00
2018-05-23T02:20:45.127Z,0.00
2018-05-23T02:21:45.148Z,0.00
2018-05-23T02:22:45.170Z,0.00
2018-05-23T02:23:45.191Z,0.00
2018-05-23T02:24:45.213Z,0.00
2018-05-23T02:25:45.234Z,0.00
2018-05-23T02:26:45.255Z,0.00
2018-05-23T02:27:45.276Z,0.00
2018-05-23T02:28:45.303Z,0.00
2018-05-23T02:29:45.319Z,0.00
2018-05-23T02:30:45.341Z,0.00
2018-05-23T02:31:45.363Z,0.00
2018-05-23T02:32:45.381Z,0.00
2018-05-23T02:33:45.403Z,0.00
2018-05-23T02:34:45.523Z,4.00
2018-05-23T02:35:45.451Z,4.00
2018-05-23T02:36:45.467Z,0.00
2018-05-23T02:37:45.491Z,0.00
2018-05-23T02:38:45.510Z,0.00
2018-05-23T02:39:45.535Z,4.00
2018-05-23T02:40:45.552Z,4.00
2018-05-23T02:41:45.576Z,0.00
2018-05-23T02:42:45.596Z,4.00
2018-05-23T02:43:45.617Z,4.00
2018-05-23T02:44:45.640Z,4.00
2018-05-23T02:45:45.665Z,4.00
2018-05-23T02:46:45.683Z,8.00
2018-05-23T02:47:45.704Z,4.00
2018-05-23T02:48:45.727Z,4.00
2018-05-23T02:49:45.746Z,8.00
2018-05-23T02:50:45.766Z,8.00
2018-05-23T02:51:45.789Z,8.00
2018-05-23T02:52:45.814Z,8.00
2018-05-23T02:53:45.834Z,12.00
2018-05-23T02:54:45.850Z,8.00
2018-05-23T02:55:45.874Z,12.00
2018-05-23T02:56:45.897Z,16.00
2018-05-23T02:57:45.917Z,16.00
2018-05-23T02:58:45.939Z,16.00
2018-05-23T02:59:45.965Z,20.00
2018-05-23T03:00:45.979Z,20.00
2018-05-23T03:01:46.010Z,24.00
2018-05-23T03:02:46.027Z,24.00
2018-05-23T03:03:46.042Z,28.00
2018-05-23T03:04:46.072Z,32.00
2018-05-23T03:05:46.088Z,36.00
2018-05-23T03:06:46.107Z,40.00
2018-05-23T03:07:46.128Z,40.00
2018-05-23T03:08:46.151Z,44.00
2018-05-23T03:09:46.177Z,52.00
2018-05-23T03:10:46.192Z,56.00
2018-05-23T03:11:46.217Z,60.00
2018-05-23T03:12:46.236Z,68.00
2018-05-23T03:13:46.260Z,76.00
2018-05-23T03:14:46.281Z,80.00
2018-05-23T03:15:46.300Z,84.00
2018-05-23T03:16:46.324Z,92.00
2018-05-23T03:17:46.342Z,96.00
2018-05-23T03:18:46.367Z,108.00
2018-05-23T03:19:46.386Z,116.00
2018-05-23T03:20:46.406Z,124.00
2018-05-23T03:21:46.431Z,136.00
2018-05-23T03:22:46.447Z,144.00
2018-05-23T03:23:46.471Z,152.00
2018-05-23T03:24:46.494Z,156.00
2018-05-23T03:25:46.513Z,168.00
2018-05-23T03:26:46.533Z,184.00
2018-05-23T03:27:46.555Z,200.00
2018-05-23T03:28:46.578Z,216.00
2018-05-23T03:29:46.601Z,244.00
2018-05-23T03:30:46.620Z,268.00
2018-05-23T03:31:46.643Z,296.00
2018-05-23T03:32:46.662Z,324.00
2018-05-23T03:33:46.685Z,356.00
2018-05-23T03:34:46.706Z,400.00
2018-05-23T03:35:46.727Z,444.00
2018-05-23T03:36:46.748Z,460.00
2018-05-23T03:37:46.769Z,452.00
2018-05-23T03:38:46.796Z,464.00
2018-05-23T03:39:46.814Z,548.00
2018-05-23T03:40:46.833Z,628.00
2018-05-23T03:41:46.855Z,624.00
2018-05-23T03:42:46.876Z,620.00
2018-05-23T03:43:46.903Z,668.00
2018-05-23T03:44:46.925Z,612.00
2018-05-23T03:45:46.940Z,468.00
2018-05-23T03:46:46.962Z,380.00
2018-05-23T03:47:46.983Z,364.00
2018-05-23T03:48:47.014Z,368.00
2018-05-23T03:49:47.026Z,372.00
2018-05-23T03:50:47.048Z,380.00
2018-05-23T03:51:47.076Z,388.00
2018-05-23T03:52:47.096Z,392.00
2018-05-23T03:53:47.116Z,404.00
2018-05-23T03:54:47.139Z,416.00
2018-05-23T03:55:47.156Z,428.00
2018-05-23T03:56:47.179Z,444.00
2018-05-23T03:57:47.203Z,456.00
2018-05-23T03:58:47.228Z,472.00
2018-05-23T03:59:47.245Z,488.00
2018-05-23T04:00:47.266Z,516.00
2018-05-23T04:01:47.287Z,540.00
2018-05-23T04:02:47.310Z,572.00
2018-05-23T04:03:47.331Z,608.00
2018-05-23T04:04:47.433Z,648.00
2018-05-23T04:05:47.371Z,684.00
2018-05-23T04:06:47.394Z,728.00
2018-05-23T04:07:47.416Z,768.00
2018-05-23T04:08:47.436Z,820.00
2018-05-23T04:09:47.485Z,876.00
2018-05-23T04:10:47.479Z,928.00
2018-05-23T04:11:47.505Z,992.00
2018-05-23T04:12:47.529Z,1056.00
2018-05-23T04:13:47.545Z,1124.00
2018-05-23T04:14:47.575Z,1204.00
2018-05-23T04:15:47.588Z,1284.00
2018-05-23T04:16:47.614Z,1388.00
2018-05-23T04:17:47.631Z,1496.00
2018-05-23T04:18:47.655Z,1616.00
2018-05-23T04:19:47.674Z,1728.00
2018-05-23T04:20:47.696Z,1848.00
2018-05-23T04:21:47.718Z,1964.00
2018-05-23T04:22:47.741Z,2068.00
2018-05-23T04:23:47.762Z,2160.00
2018-05-23T04:24:47.796Z,2244.00
2018-05-23T04:25:47.810Z,2324.00
2018-05-23T04:26:47.824Z,2408.00
2018-05-23T04:27:47.850Z,2484.00
2018-05-23T04:28:47.871Z,2580.00
2018-05-23T04:29:47.903Z,2776.00
2018-05-23T04:30:47.910Z,3020.00
2018-05-23T04:31:47.935Z,3164.00
2018-05-23T04:32:47.955Z,3348.00
2018-05-23T04:33:47.979Z,3560.00
2018-05-23T04:34:48.000Z,4036.00
2018-05-23T04:35:48.026Z,4360.00
2018-05-23T04:36:48.043Z,4724.00
2018-05-23T04:37:48.065Z,4868.00
2018-05-23T04:38:48.086Z,4944.00
2018-05-23T04:39:48.110Z,5104.00
2018-05-23T04:40:48.131Z,5328.00
2018-05-23T04:41:48.155Z,5616.00
2018-05-23T04:42:48.176Z,5808.00
2018-05-23T04:43:48.200Z,6036.00
2018-05-23T04:44:48.222Z,6008.00
2018-05-23T04:45:48.244Z,6064.00
2018-05-23T04:46:48.267Z,5292.00
2018-05-23T04:47:48.294Z,4488.00
2018-05-23T04:48:48.339Z,4048.00
2018-05-23T04:49:48.331Z,3860.00
2018-05-23T04:50:48.355Z,3992.00
2018-05-23T04:51:48.381Z,4080.00
2018-05-23T04:52:48.399Z,4012.00
2018-05-23T04:53:48.426Z,4140.00
2018-05-23T04:54:48.446Z,4300.00
2018-05-23T04:55:48.470Z,4076.00
2018-05-23T04:56:48.490Z,3880.00
2018-05-23T04:57:48.513Z,3848.00
2018-05-23T04:58:48.538Z,3792.00
2018-05-23T04:59:48.563Z,3864.00
2018-05-23T05:00:48.581Z,4028.00
2018-05-23T05:01:48.608Z,4084.00
2018-05-23T05:02:48.630Z,4152.00
2018-05-23T05:03:48.649Z,4304.00
2018-05-23T05:04:48.677Z,4420.00
2018-05-23T05:05:48.702Z,4532.00
2018-05-23T05:06:48.720Z,4656.00
2018-05-23T05:07:48.745Z,4764.00
2018-05-23T05:08:48.772Z,4844.00
2018-05-23T05:09:48.789Z,4856.00
2018-05-23T05:10:48.817Z,4748.00
2018-05-23T05:11:48.836Z,4816.00
2018-05-23T05:12:48.860Z,5040.00
2018-05-23T05:13:48.975Z,4964.00
2018-05-23T05:14:48.906Z,5292.00
2018-05-23T05:15:48.930Z,5696.00
2018-05-23T05:16:48.953Z,5980.00
2018-05-23T05:17:48.977Z,6336.00
2018-05-23T05:18:48.998Z,6672.00
2018-05-23T05:19:49.029Z,6868.00
2018-05-23T05:20:49.046Z,6944.00
2018-05-23T05:21:49.067Z,7028.00
2018-05-23T05:22:49.093Z,7144.00
2018-05-23T05:23:49.115Z,7060.00
2018-05-23T05:24:49.208Z,7804.00
2018-05-23T05:25:49.174Z,7712.00
2018-05-23T05:26:49.185Z,7820.00
2018-05-23T05:27:49.213Z,7724.00
2018-05-23T05:28:49.233Z,7492.00
2018-05-23T05:29:49.258Z,7332.00
2018-05-23T05:30:49.283Z,7604.00
2018-05-23T05:31:49.360Z,8116.00
2018-05-23T05:32:49.326Z,8464.00
2018-05-23T05:33:49.355Z,8860.00
2018-05-23T05:34:49.374Z,9584.00
2018-05-23T05:35:49.407Z,9572.00
2018-05-23T05:36:49.428Z,9796.00
2018-05-23T05:37:49.459Z,10420.00
2018-05-23T05:38:49.524Z,11304.00
2018-05-23T05:39:49.503Z,12496.00
2018-05-23T05:40:49.525Z,14204.00
2018-05-23T05:41:49.549Z,15860.00
2018-05-23T05:42:49.575Z,18112.00
2018-05-23T05:43:49.597Z,20736.00
2018-05-23T05:44:49.634Z,19936.00
2018-05-23T05:45:49.647Z,19168.00
2018-05-23T05:46:49.710Z,17696.00
2018-05-23T05:47:49.697Z,15980.00
2018-05-23T05:48:49.721Z,14148.00
2018-05-23T05:49:49.749Z,12768.00
2018-05-23T05:50:49.772Z,11284.00
2018-05-23T05:51:49.799Z,11364.00
2018-05-23T05:52:49.825Z,11212.00
2018-05-23T05:53:49.954Z,11044.00
2018-05-23T05:54:49.885Z,12172.00
2018-05-23T05:55:49.902Z,12692.00
2018-05-23T05:56:49.929Z,14272.00
2018-05-23T05:57:49.954Z,17600.00
2018-05-23T05:58:49.982Z,19744.00
2018-05-23T05:59:50.011Z,20672.00
2018-05-23T06:00:50.036Z,20032.00
2018-05-23T06:01:50.066Z,20416.00
2018-05-23T06:02:50.088Z,20768.00
2018-05-23T06:03:50.121Z,20800.00
2018-05-23T06:04:50.136Z,22112.00
2018-05-23T06:05:50.169Z,22208.00
2018-05-23T06:06:50.799Z,22432.00
2018-05-23T06:07:50.224Z,23296.00
2018-05-23T06:08:50.271Z,22880.00
2018-05-23T06:09:50.303Z,22624.00
2018-05-23T06:10:50.303Z,22720.00
2018-05-23T06:11:51.092Z,23200.00
2018-05-23T06:12:50.395Z,23072.00
2018-05-23T06:13:50.391Z,23104.00
2018-05-23T06:14:50.473Z,23744.00
2018-05-23T06:15:50.439Z,23872.00
2018-05-23T06:16:50.589Z,23392.00
2018-05-23T06:17:50.497Z,22784.00
2018-05-23T06:18:50.524Z,22048.00
2018-05-23T06:19:50.556Z,21536.00
2018-05-23T06:20:50.582Z,19616.00
2018-05-23T06:21:50.612Z,17792.00
2018-05-23T06:22:50.643Z,20000.00
2018-05-23T06:23:50.666Z,20512.00
2018-05-23T06:24:50.692Z,22336.00
2018-05-23T06:25:50.749Z,23904.00
2018-05-23T06:26:50.747Z,24480.00
2018-05-23T06:27:50.783Z,23776.00
2018-05-23T06:28:50.816Z,23040.00
2018-05-23T06:29:50.835Z,22912.00
2018-05-23T06:30:50.865Z,22336.00
2018-05-23T06:31:50.893Z,23424.00
2018-05-23T06:32:50.925Z,23584.00
2018-05-23T06:33:50.951Z,22944.00
2018-05-23T06:34:50.978Z,23040.00
2018-05-23T06:35:51.023Z,22112.00
2018-05-23T06:36:51.045Z,21824.00
2018-05-23T06:37:51.186Z,22048.00
2018-05-23T06:38:51.093Z,21248.00
2018-05-23T06:39:51.121Z,20896.00
2018-05-23T06:40:51.151Z,22016.00
2018-05-23T06:41:51.177Z,21920.00
2018-05-23T06:42:51.204Z,20448.00
2018-05-23T06:43:51.238Z,21024.00
2018-05-23T06:44:51.267Z,22400.00
2018-05-23T06:45:51.292Z,21184.00
2018-05-23T06:46:51.369Z,18400.00
2018-05-23T06:47:51.344Z,15324.00
2018-05-23T06:48:51.367Z,12388.00
2018-05-23T06:49:51.409Z,9240.00
2018-05-23T06:50:51.429Z,7908.00
2018-05-23T06:51:51.462Z,7520.00
2018-05-23T06:52:51.494Z,7128.00
2018-05-23T06:53:51.527Z,6828.00
2018-05-23T06:54:51.538Z,6512.00
2018-05-23T06:55:51.568Z,6360.00
2018-05-23T06:56:51.660Z,6204.00
2018-05-23T06:57:51.619Z,6036.00
2018-05-23T06:58:51.666Z,5908.00
2018-05-23T06:59:51.899Z,5780.00
2018-05-23T07:00:51.871Z,5672.00
2018-05-23T07:01:51.735Z,5604.00
2018-05-23T07:02:51.764Z,5520.00
2018-05-23T07:03:51.788Z,5432.00
2018-05-23T07:04:51.807Z,5368.00
2018-05-23T07:05:51.936Z,5316.00
2018-05-23T07:06:51.852Z,5252.00
2018-05-23T07:07:51.885Z,5200.00
2018-05-23T07:08:51.987Z,5144.00
2018-05-23T07:09:51.936Z,5096.00
2018-05-23T07:10:51.985Z,5036.00
2018-05-23T07:11:52.006Z,4996.00
2018-05-23T07:12:52.025Z,4964.00
2018-05-23T07:13:52.045Z,4912.00
2018-05-23T07:14:52.064Z,4880.00
2018-05-23T07:15:52.091Z,4852.00
2018-05-23T07:16:52.111Z,4792.00
2018-05-23T07:17:52.167Z,4756.00
2018-05-23T07:18:52.165Z,4724.00
2018-05-23T07:19:52.189Z,4712.00
2018-05-23T07:20:52.213Z,4700.00
2018-05-23T07:21:52.240Z,4660.00
2018-05-23T07:22:52.270Z,4556.00
2018-05-23T07:23:52.287Z,4584.00
2018-05-23T07:24:52.315Z,4572.00
2018-05-23T07:25:52.404Z,4552.00
2018-05-23T07:26:52.368Z,4520.00
2018-05-23T07:27:52.386Z,4464.00
2018-05-23T07:28:52.414Z,4312.00
2018-05-23T07:29:52.443Z,4308.00
2018-05-23T07:30:52.460Z,4384.00
2018-05-23T07:31:52.487Z,4424.00
2018-05-23T07:32:52.512Z,4420.00
2018-05-23T07:33:52.541Z,4356.00
2018-05-23T07:34:52.561Z,4420.00
2018-05-23T07:35:52.595Z,4400.00
2018-05-23T07:36:52.615Z,4396.00
2018-05-23T07:37:52.634Z,4408.00
2018-05-23T07:38:52.656Z,4416.00
2018-05-23T07:39:52.684Z,4428.00
2018-05-23T07:40:52.710Z,4444.00
2018-05-23T07:41:52.733Z,4408.00
2018-05-23T07:42:52.754Z,4388.00
2018-05-23T07:43:52.780Z,4232.00
2018-05-23T07:44:52.805Z,4176.00
2018-05-23T07:45:52.851Z,4164.00
2018-05-23T07:46:52.893Z,4168.00
2018-05-23T07:47:52.871Z,4148.00
2018-05-23T07:48:52.899Z,4172.00
2018-05-23T07:49:52.927Z,4188.00
2018-05-23T07:50:52.946Z,4148.00
2018-05-23T07:51:52.975Z,4152.00
2018-05-23T07:52:52.997Z,4180.00
2018-05-23T07:53:53.021Z,4212.00
2018-05-23T07:54:53.044Z,4288.00
2018-05-23T07:55:53.076Z,4292.00
2018-05-23T07:56:53.094Z,4332.00
2018-05-23T07:57:53.115Z,4376.00
2018-05-23T07:58:53.135Z,4408.00
2018-05-23T07:59:53.164Z,4436.00
2018-05-23T08:00:53.199Z,4460.00
2018-05-23T08:01:53.213Z,4520.00
2018-05-23T08:02:53.234Z,4536.00
2018-05-23T08:03:53.261Z,4516.00
2018-05-23T08:04:53.289Z,4468.00
2018-05-23T08:05:53.349Z,4452.00
2018-05-23T08:06:53.351Z,4472.00
2018-05-23T08:07:53.355Z,4468.00
2018-05-23T08:08:53.379Z,4508.00
2018-05-23T08:09:53.406Z,4500.00
2018-05-23T08:10:53.420Z,4488.00
2018-05-23T08:11:53.475Z,4460.00
2018-05-23T08:12:53.493Z,4416.00
2018-05-23T08:13:53.502Z,4408.00
2018-05-23T08:14:53.521Z,4328.00
2018-05-23T08:15:53.546Z,4272.00
2018-05-23T08:16:53.568Z,4224.00
2018-05-23T08:17:53.602Z,4188.00
2018-05-23T08:18:53.617Z,4136.00
2018-05-23T08:19:53.643Z,4116.00
2018-05-23T08:20:53.672Z,4092.00
2018-05-23T08:21:53.691Z,4052.00
2018-05-23T08:22:53.719Z,4020.00
2018-05-23T08:23:53.757Z,3976.00
2018-05-23T08:24:53.776Z,3940.00
2018-05-23T08:25:53.797Z,3904.00
2018-05-23T08:26:53.808Z,3872.00
2018-05-23T08:27:53.837Z,3840.00
2018-05-23T08:28:53.862Z,3796.00
2018-05-23T08:29:53.956Z,3744.00
2018-05-23T08:30:53.905Z,3708.00
2018-05-23T08:31:53.934Z,3692.00
2018-05-23T08:32:53.953Z,3688.00
2018-05-23T08:33:53.983Z,3668.00
2018-05-23T08:34:54.007Z,3660.00
2018-05-23T08:35:54.061Z,3652.00
2018-05-23T08:36:54.051Z,3652.00
2018-05-23T08:37:54.077Z,3648.00
2018-05-23T08:38:54.420Z,3664.00
2018-05-23T08:39:54.137Z,3684.00
2018-05-23T08:40:54.152Z,3688.00
2018-05-23T08:41:54.170Z,3708.00
2018-05-23T08:42:54.194Z,3732.00
2018-05-23T08:43:54.219Z,3768.00
2018-05-23T08:44:54.247Z,3812.00
2018-05-23T08:45:54.294Z,3836.00
2018-05-23T08:46:54.297Z,3820.00
2018-05-23T08:47:54.316Z,3804.00
2018-05-23T08:48:54.335Z,3808.00
2018-05-23T08:49:54.364Z,3788.00
2018-05-23T08:50:54.384Z,3788.00
2018-05-23T08:51:54.414Z,3788.00
2018-05-23T08:52:54.434Z,3848.00
2018-05-23T08:53:54.455Z,3832.00
2018-05-23T08:54:54.489Z,3772.00
2018-05-23T08:55:54.502Z,3768.00
2018-05-23T08:56:54.549Z,3788.00
2018-05-23T08:57:54.580Z,3780.00
2018-05-23T08:58:54.584Z,3804.00
2018-05-23T08:59:54.605Z,3840.00
2018-05-23T09:00:54.627Z,3848.00
2018-05-23T09:01:54.644Z,3872.00
2018-05-23T09:02:54.670Z,3864.00
2018-05-23T09:03:54.704Z,3884.00
2018-05-23T09:04:54.757Z,3912.00
2018-05-23T09:05:54.743Z,3972.00
2018-05-23T09:06:54.764Z,4024.00
2018-05-23T09:07:54.794Z,4016.00
2018-05-23T09:08:54.811Z,4032.00
2018-05-23T09:09:54.844Z,4100.00
2018-05-23T09:10:54.857Z,4068.00
2018-05-23T09:11:54.885Z,4124.00
2018-05-23T09:12:55.026Z,4136.00
2018-05-23T09:13:54.981Z,4152.00
2018-05-23T09:14:55.004Z,4164.00
2018-05-23T09:15:54.974Z,4152.00
2018-05-23T09:16:55.004Z,4148.00
2018-05-23T09:17:55.030Z,4080.00
2018-05-23T09:18:55.042Z,4000.00
2018-05-23T09:19:55.074Z,4028.00
2018-05-23T09:20:55.095Z,3980.00
2018-05-23T09:21:55.115Z,3984.00
2018-05-23T09:22:55.149Z,3912.00
2018-05-23T09:23:55.166Z,3912.00
2018-05-23T09:24:55.192Z,3892.00
2018-05-23T09:25:55.229Z,3924.00
2018-05-23T09:26:55.243Z,3912.00
2018-05-23T09:27:55.263Z,3940.00
2018-05-23T09:28:55.292Z,4012.00
2018-05-23T09:29:55.316Z,4060.00
2018-05-23T09:30:55.340Z,4084.00
2018-05-23T09:31:55.524Z,4116.00
2018-05-23T09:32:55.388Z,4132.00
2018-05-23T09:33:55.564Z,4132.00
2018-05-23T09:34:56.369Z,4136.00
2018-05-23T09:35:55.492Z,4136.00
2018-05-23T09:36:55.504Z,4120.00
2018-05-23T09:37:55.501Z,4092.00
2018-05-23T09:38:55.552Z,4080.00
2018-05-23T09:39:55.566Z,4068.00
2018-05-23T09:40:55.576Z,4064.00
2018-05-23T09:41:55.674Z,4056.00
2018-05-23T09:42:55.637Z,4056.00
2018-05-23T09:43:55.670Z,4076.00
2018-05-23T09:44:55.671Z,4084.00
2018-05-23T09:45:55.688Z,4080.00
2018-05-23T09:46:55.714Z,4084.00
2018-05-23T09:47:55.772Z,4096.00
2018-05-23T09:48:55.766Z,4104.00
2018-05-23T09:49:55.783Z,4096.00
2018-05-23T09:50:55.849Z,4100.00
2018-05-23T09:51:55.865Z,4092.00
2018-05-23T09:52:56.824Z,4092.00
2018-05-23T09:53:55.878Z,4092.00
2018-05-23T09:54:55.964Z,4092.00
2018-05-23T09:55:55.935Z,4096.00
2018-05-23T09:56:55.962Z,4080.00
2018-05-23T09:57:55.995Z,4084.00
2018-05-23T09:58:57.846Z,4092.00
2018-05-23T09:59:56.822Z,4096.00
2018-05-23T10:00:56.059Z,4112.00
2018-05-23T10:01:56.076Z,4128.00
2018-05-23T10:02:56.269Z,4136.00
2018-05-23T10:03:56.833Z,4144.00
2018-05-23T10:04:56.178Z,4152.00
2018-05-23T10:05:56.187Z,4168.00
2018-05-23T10:06:56.202Z,4176.00
2018-05-23T10:07:56.271Z,4176.00
2018-05-23T10:08:56.234Z,4204.00
2018-05-23T10:09:56.260Z,4224.00
2018-05-23T10:10:56.277Z,4244.00
2018-05-23T10:11:56.302Z,4276.00
2018-05-23T10:12:56.377Z,4292.00
2018-05-23T10:13:56.351Z,4304.00
2018-05-23T10:14:56.377Z,4324.00
2018-05-23T10:15:56.400Z,4352.00
2018-05-23T10:16:56.425Z,4376.00
2018-05-23T10:17:56.488Z,4388.00
2018-05-23T10:18:56.469Z,4428.00
2018-05-23T10:19:56.492Z,4448.00
2018-05-23T10:20:56.524Z,4448.00
2018-05-23T10:21:56.670Z,4444.00
2018-05-23T10:22:56.568Z,4464.00
2018-05-23T10:23:56.589Z,4476.00
2018-05-23T10:24:56.620Z,4488.00
2018-05-23T10:25:56.629Z,4484.00
2018-05-23T10:26:56.671Z,4480.00
2018-05-23T10:27:56.682Z,4472.00
2018-05-23T10:28:56.708Z,4480.00
2018-05-23T10:29:56.734Z,4476.00
2018-05-23T10:30:56.751Z,4468.00
2018-05-23T10:31:56.806Z,4468.00
2018-05-23T10:32:56.851Z,4464.00
2018-05-23T10:33:56.889Z,4476.00
2018-05-23T10:34:56.910Z,4472.00
2018-05-23T10:35:56.900Z,4460.00
2018-05-23T10:36:56.896Z,4468.00
2018-05-23T10:37:56.921Z,4460.00
2018-05-23T10:38:56.936Z,4480.00
2018-05-23T10:39:56.968Z,4492.00
2018-05-23T10:40:56.988Z,4516.00
2018-05-23T10:41:57.010Z,4540.00
2018-05-23T10:42:57.040Z,4556.00
2018-05-23T10:43:57.060Z,4580.00
2018-05-23T10:44:57.082Z,4604.00
2018-05-23T10:45:57.102Z,4632.00
2018-05-23T10:46:57.129Z,4648.00
2018-05-23T10:47:57.161Z,4676.00
2018-05-23T10:48:57.205Z,4696.00
2018-05-23T10:49:57.209Z,4728.00
2018-05-23T10:50:57.234Z,4764.00
2018-05-23T10:51:57.325Z,4792.00
2018-05-23T10:52:57.285Z,4824.00
2018-05-23T10:53:57.297Z,4848.00
2018-05-23T10:54:57.318Z,4872.00
2018-05-23T10:55:57.342Z,4888.00
2018-05-23T10:56:57.368Z,4912.00
2018-05-23T10:57:57.395Z,4932.00
2018-05-23T10:58:57.414Z,4964.00
2018-05-23T10:59:57.434Z,4980.00
2018-05-23T11:00:57.467Z,5004.00
2018-05-23T11:01:57.485Z,5012.00
2018-05-23T11:02:57.540Z,5032.00
2018-05-23T11:03:57.550Z,5044.00
2018-05-23T11:04:57.564Z,5036.00
2018-05-23T11:05:57.591Z,5024.00
2018-05-23T11:06:57.609Z,5016.00
2018-05-23T11:07:57.631Z,5008.00
2018-05-23T11:08:57.665Z,4976.00
2018-05-23T11:09:57.678Z,4944.00
2018-05-23T11:10:57.700Z,4932.00
2018-05-23T11:11:57.737Z,4916.00
2018-05-23T11:12:57.747Z,4888.00
2018-05-23T11:13:57.773Z,4848.00
2018-05-23T11:14:57.868Z,4832.00
2018-05-23T11:15:57.817Z,4804.00
2018-05-23T11:16:57.846Z,4764.00
2018-05-23T11:17:57.879Z,4724.00
2018-05-23T11:18:57.889Z,4676.00
2018-05-23T11:19:57.916Z,4628.00
2018-05-23T11:20:57.944Z,4584.00
2018-05-23T11:21:57.963Z,4524.00
2018-05-23T11:22:57.988Z,4464.00
2018-05-23T11:23:58.014Z,4416.00
2018-05-23T11:24:58.034Z,4384.00
2018-05-23T11:25:58.060Z,4360.00
2018-05-23T11:26:58.084Z,1772.00
2018-05-23T11:27:58.107Z,2536.00
2018-05-23T11:28:58.133Z,2524.00
2018-05-23T11:29:58.161Z,2508.00
2018-05-23T11:30:58.175Z,2488.00
2018-05-23T11:31:58.200Z,2484.00
2018-05-23T11:32:58.226Z,2504.00
2018-05-23T11:33:58.249Z,2524.00
2018-05-23T11:34:58.290Z,2540.00
2018-05-23T11:35:58.298Z,2540.00
2018-05-23T11:36:58.321Z,2544.00
2018-05-23T11:37:58.474Z,2544.00
2018-05-23T11:38:58.378Z,2548.00
2018-05-23T11:39:58.394Z,2568.00
2018-05-23T11:40:58.419Z,2576.00
2018-05-23T11:41:58.443Z,2580.00
2018-05-23T11:42:58.471Z,2584.00
2018-05-23T11:43:58.491Z,2572.00
2018-05-23T11:44:58.514Z,2572.00
2018-05-23T11:45:58.539Z,2560.00
2018-05-23T11:46:58.576Z,2548.00
2018-05-23T11:47:58.589Z,2544.00
2018-05-23T11:48:58.649Z,2548.00
2018-05-23T11:49:58.641Z,2532.00
2018-05-23T11:50:58.661Z,2512.00
2018-05-23T11:51:58.688Z,2448.00
2018-05-23T11:52:58.712Z,2412.00
2018-05-23T11:53:58.738Z,2376.00
2018-05-23T11:54:58.761Z,2376.00
2018-05-23T11:55:58.790Z,2348.00
2018-05-23T11:56:58.810Z,2312.00
2018-05-23T11:57:58.844Z,2280.00
2018-05-23T11:58:58.866Z,2264.00
2018-05-23T11:59:58.884Z,2240.00
2018-05-23T12:00:58.919Z,2196.00
2018-05-23T12:01:58.983Z,2168.00
2018-05-23T12:02:58.955Z,2140.00
2018-05-23T12:03:58.980Z,2112.00
2018-05-23T12:04:59.017Z,2088.00
2018-05-23T12:05:59.046Z,2080.00
2018-05-23T12:06:59.056Z,2076.00
2018-05-23T12:07:59.085Z,2068.00
2018-05-23T12:08:59.158Z,2056.00
2018-05-23T12:09:59.140Z,2040.00
2018-05-23T12:10:59.210Z,2036.00
2018-05-23T12:11:59.190Z,2080.00
2018-05-23T12:12:59.251Z,2084.00
2018-05-23T12:13:59.250Z,2080.00
2018-05-23T12:14:59.277Z,2072.00
2018-05-23T12:15:59.285Z,2064.00
2018-05-23T12:16:59.306Z,2076.00
2018-05-23T12:17:59.332Z,2072.00
2018-05-23T12:18:59.353Z,2064.00
2018-05-23T12:19:59.393Z,2080.00
2018-05-23T12:20:59.446Z,2088.00
2018-05-23T12:21:59.430Z,2076.00
2018-05-23T12:22:59.452Z,2032.00